createdAt,value
2018-06-05T00:01:02.842Z,20.70
2018-06-05T00:03:31.364Z,21.20
2018-06-05T00:05:59.839Z,20.40
2018-06-05T00:08:28.378Z,16.13
2018-06-05T00:10:56.858Z,17.20
2018-06-05T00:13:25.440Z,21.33
2018-06-05T00:15:53.922Z,15.80
2018-06-05T00:18:22.470Z,17.63
2018-06-05T00:20:50.980Z,19.53
2018-06-05T00:23:19.493Z,25.10
2018-06-05T00:25:48.002Z,18.23
2018-06-05T00:28:16.528Z,21.00
2018-06-05T00:30:44.769Z,20.47
2018-06-05T00:33:13.357Z,14.03
2018-06-05T00:35:41.939Z,16.17
2018-06-05T00:38:10.432Z,19.30
2018-06-05T00:40:38.997Z,15.97
2018-06-05T00:43:07.560Z,16.13
2018-06-05T00:45:36.445Z,17.87
2018-06-05T00:48:04.936Z,17.07
2018-06-05T00:50:33.467Z,24.37
2018-06-05T00:53:02.019Z,22.30
2018-06-05T00:55:30.796Z,16.37
2018-06-05T00:57:59.289Z,14.47
2018-06-05T01:00:28.605Z,12.83
2018-06-05T01:02:57.216Z,14.80
2018-06-05T01:05:26.436Z,13.27
2018-06-05T01:07:55.063Z,10.93
2018-06-05T01:10:23.970Z,16.83
2018-06-05T01:12:52.718Z,15.57
2018-06-05T01:15:21.591Z,12.13
2018-06-05T01:17:50.104Z,9.77
2018-06-05T01:20:18.610Z,15.43
2018-06-05T01:22:47.164Z,11.33
2018-06-05T01:25:15.715Z,8.53
2018-06-05T01:27:44.862Z,9.83
2018-06-05T01:30:13.458Z,12.13
2018-06-05T01:32:41.996Z,12.03
2018-06-05T01:35:10.590Z,12.37
2018-06-05T01:37:39.123Z,15.37
2018-06-05T01:40:07.623Z,12.87
2018-06-05T01:42:36.152Z,11.73
2018-06-05T01:45:04.718Z,17.83
2018-06-05T01:47:33.207Z,10.93
2018-06-05T01:50:01.763Z,11.53
2018-06-05T01:52:30.260Z,12.27
2018-06-05T01:54:58.704Z,12.07
2018-06-05T01:57:27.164Z,11.23
2018-06-05T01:59:55.727Z,9.33
2018-06-05T02:02:24.225Z,10.33
2018-06-05T02:04:52.721Z,14.90
2018-06-05T02:07:21.242Z,12.90
2018-06-05T02:09:49.730Z,10.37
2018-06-05T02:12:18.169Z,15.00
2018-06-05T02:14:46.654Z,14.37
2018-06-05T02:17:15.092Z,11.80
2018-06-05T02:19:43.562Z,22.80
2018-06-05T02:22:12.048Z,14.20
2018-06-05T02:24:40.530Z,11.93
2018-06-05T02:27:08.987Z,14.00
2018-06-05T02:29:37.493Z,9.97
2018-06-05T02:32:05.981Z,10.53
2018-06-05T02:34:34.469Z,14.20
2018-06-05T02:37:02.979Z,12.30
2018-06-05T02:39:31.466Z,9.50
2018-06-05T02:41:59.927Z,15.03
2018-06-05T02:44:28.418Z,10.77
2018-06-05T02:46:56.911Z,16.03
2018-06-05T02:49:25.380Z,15.70
2018-06-05T02:51:53.857Z,16.00
2018-06-05T02:54:22.350Z,11.57
2018-06-05T02:56:50.850Z,16.50
2018-06-05T02:59:19.359Z,10.50
2018-06-05T03:01:47.939Z,18.17
2018-06-05T03:04:16.786Z,19.37
2018-06-05T03:06:45.251Z,17.73
2018-06-05T03:09:13.722Z,23.07
2018-06-05T03:11:42.256Z,14.23
2018-06-05T03:14:10.771Z,15.67
2018-06-05T03:16:39.274Z,16.90
2018-06-05T03:19:07.782Z,18.70
2018-06-05T03:21:36.250Z,17.73
2018-06-05T03:24:04.715Z,16.47
2018-06-05T03:26:33.153Z,14.33
2018-06-05T03:29:01.645Z,14.47
2018-06-05T03:31:30.126Z,19.53
2018-06-05T03:33:58.650Z,16.63
2018-06-05T03:36:27.130Z,18.50
2018-06-05T03:38:55.611Z,18.53
2018-06-05T03:41:24.130Z,16.23
2018-06-05T03:43:52.605Z,19.57
2018-06-05T03:46:21.096Z,17.73
2018-06-05T03:48:49.628Z,15.97
2018-06-05T03:51:18.144Z,17.97
2018-06-05T03:53:46.668Z,18.83
2018-06-05T03:56:15.167Z,19.90
2018-06-05T03:58:43.615Z,12.63
2018-06-05T04:01:12.146Z,15.07
2018-06-05T04:03:40.667Z,13.93
2018-06-05T04:06:09.160Z,19.00
2018-06-05T04:08:37.673Z,18.10
2018-06-05T04:11:06.311Z,16.67
2018-06-05T04:13:34.815Z,13.67
2018-06-05T04:16:04.266Z,16.77
2018-06-05T04:18:32.739Z,20.97
2018-06-05T04:21:01.244Z,12.70
2018-06-05T04:23:29.719Z,16.83
2018-06-05T04:25:58.216Z,14.50
2018-06-05T04:28:26.700Z,14.00
2018-06-05T04:30:55.153Z,20.93
2018-06-05T04:33:23.823Z,14.13
2018-06-05T04:35:52.338Z,13.37
2018-06-05T04:38:20.882Z,12.90
2018-06-05T04:40:49.355Z,20.13
2018-06-05T04:43:17.837Z,15.90
2018-06-05T04:45:46.616Z,16.63
2018-06-05T04:48:15.079Z,17.23
2018-06-05T04:50:43.554Z,17.13
2018-06-05T04:53:12.450Z,16.50
2018-06-05T04:55:41.429Z,18.50
2018-06-05T04:58:09.888Z,19.57
2018-06-05T05:00:38.396Z,12.50
2018-06-05T05:03:06.882Z,14.60
2018-06-05T05:05:35.394Z,15.40
2018-06-05T05:08:03.933Z,16.13
2018-06-05T05:10:32.420Z,14.80
2018-06-05T05:13:01.000Z,13.67
2018-06-05T05:15:29.490Z,15.17
2018-06-05T05:17:58.220Z,16.20
2018-06-05T05:20:26.794Z,19.63
2018-06-05T05:22:55.334Z,12.40
2018-06-05T05:25:24.828Z,15.37
2018-06-05T05:27:53.066Z,23.03
2018-06-05T05:30:21.531Z,15.30
2018-06-05T05:32:50.263Z,17.83
2018-06-05T05:35:18.704Z,18.60
2018-06-05T05:37:47.224Z,14.13
2018-06-05T05:40:15.649Z,11.50
2018-06-05T05:42:44.121Z,20.57
2018-06-05T05:45:12.637Z,19.33
2018-06-05T05:47:41.100Z,14.17
2018-06-05T05:50:09.569Z,18.10
2018-06-05T05:52:38.042Z,13.87
2018-06-05T05:55:06.517Z,14.20
2018-06-05T05:57:35.070Z,15.13
2018-06-05T06:00:09.195Z,10.83
2018-06-05T06:02:37.650Z,15.27
2018-06-05T06:05:05.813Z,17.43
2018-06-05T06:07:34.269Z,15.40
2018-06-05T06:10:02.763Z,10.47
2018-06-05T06:12:31.337Z,14.20
2018-06-05T06:14:59.790Z,18.07
2018-06-05T06:17:28.235Z,11.03
2018-06-05T06:19:56.736Z,11.73
2018-06-05T06:22:25.253Z,17.43
2018-06-05T06:24:53.829Z,12.83
2018-06-05T06:27:22.241Z,14.57
2018-06-05T06:29:50.720Z,14.80
2018-06-05T06:32:19.428Z,12.80
2018-06-05T06:34:47.889Z,17.90
2018-06-05T06:37:16.342Z,13.50
2018-06-05T06:39:44.804Z,12.30
2018-06-05T06:42:13.248Z,12.80
2018-06-05T06:44:41.706Z,14.60
2018-06-05T06:47:10.131Z,14.90
2018-06-05T06:49:38.611Z,12.70
2018-06-05T06:52:07.167Z,10.40
2018-06-05T06:54:35.668Z,16.00
2018-06-05T06:57:04.189Z,11.13
2018-06-05T06:59:32.661Z,9.83
2018-06-05T07:02:01.148Z,13.53
2018-06-05T07:04:29.623Z,12.63
2018-06-05T07:06:58.101Z,11.93
2018-06-05T07:09:26.576Z,13.20
2018-06-05T07:11:55.151Z,14.00
2018-06-05T07:14:23.656Z,15.40
2018-06-05T07:16:52.165Z,12.83
2018-06-05T07:19:20.779Z,17.13
2018-06-05T07:21:48.946Z,13.57
2018-06-05T07:24:17.405Z,18.27
2018-06-05T07:26:45.845Z,12.77
2018-06-05T07:29:14.326Z,19.60
2018-06-05T07:31:42.758Z,15.77
2018-06-05T07:34:11.226Z,18.10
2018-06-05T07:36:39.700Z,15.63
2018-06-05T07:39:08.627Z,12.57
2018-06-05T07:41:37.073Z,17.70
2018-06-05T07:44:05.568Z,15.23
2018-06-05T07:46:33.997Z,14.27
2018-06-05T07:49:02.478Z,15.47
2018-06-05T07:51:30.915Z,12.13
2018-06-05T07:53:59.370Z,15.07
2018-06-05T07:56:27.797Z,16.37
2018-06-05T07:58:56.260Z,17.50
2018-06-05T08:01:24.808Z,14.07
2018-06-05T08:03:53.316Z,21.70
2018-06-05T08:06:21.838Z,15.70
2018-06-05T08:08:50.288Z,12.87
2018-06-05T08:11:18.762Z,17.93
2018-06-05T08:13:47.233Z,10.33
2018-06-05T08:16:15.715Z,13.33
2018-06-05T08:18:44.143Z,12.23
2018-06-05T08:21:12.603Z,11.93
2018-06-05T08:23:41.043Z,17.13
2018-06-05T08:26:09.504Z,13.13
2018-06-05T08:28:37.939Z,15.60
2018-06-05T08:31:06.416Z,13.73
2018-06-05T08:33:34.849Z,14.17
2018-06-05T08:36:03.286Z,10.43
2018-06-05T08:38:31.758Z,18.60
2018-06-05T08:41:00.182Z,18.53
2018-06-05T08:43:28.651Z,12.00
2018-06-05T08:45:57.139Z,10.60
2018-06-05T08:48:25.646Z,14.47
2018-06-05T08:50:54.056Z,15.73
2018-06-05T08:53:22.504Z,14.83
2018-06-05T08:55:50.959Z,18.57
2018-06-05T08:58:19.543Z,12.03
2018-06-05T09:00:48.229Z,16.07
2018-06-05T09:03:16.709Z,14.07
2018-06-05T09:05:45.187Z,21.27
2018-06-05T09:08:13.744Z,13.03
2018-06-05T09:10:42.244Z,12.60
2018-06-05T09:13:10.747Z,14.57
2018-06-05T09:15:39.172Z,12.83
2018-06-05T09:18:07.607Z,12.07
2018-06-05T09:20:36.064Z,11.50
2018-06-05T09:23:04.537Z,13.23
2018-06-05T09:25:33.111Z,13.90
2018-06-05T09:28:01.538Z,17.17
2018-06-05T09:30:29.985Z,7.93
2018-06-05T09:32:58.597Z,15.60
2018-06-05T09:35:27.071Z,13.60
2018-06-05T09:37:55.512Z,14.03
2018-06-05T09:40:24.002Z,16.67
2018-06-05T09:42:52.436Z,10.67
2018-06-05T09:45:20.896Z,12.63
2018-06-05T09:47:49.334Z,10.90
2018-06-05T09:50:17.786Z,14.60
2018-06-05T09:52:46.213Z,12.53
2018-06-05T09:55:14.681Z,14.53
2018-06-05T09:57:43.189Z,14.80
2018-06-05T10:00:11.605Z,13.13
2018-06-05T10:02:40.079Z,14.07
2018-06-05T10:05:08.543Z,14.30
2018-06-05T10:07:37.039Z,19.73
2018-06-05T10:10:05.866Z,19.13
2018-06-05T10:12:34.407Z,14.37
2018-06-05T10:15:02.854Z,19.37
2018-06-05T10:17:31.271Z,14.37
2018-06-05T10:19:59.748Z,19.30
2018-06-05T10:22:28.192Z,18.30
2018-06-05T10:24:56.664Z,12.23
2018-06-05T10:27:25.082Z,10.53
2018-06-05T10:29:53.540Z,10.23
2018-06-05T10:32:21.991Z,14.93
2018-06-05T10:34:50.568Z,16.13
2018-06-05T10:37:18.984Z,14.63
2018-06-05T10:39:47.496Z,11.67
2018-06-05T10:42:15.966Z,12.03
2018-06-05T10:44:44.433Z,12.30
2018-06-05T10:47:12.838Z,16.63
2018-06-05T10:49:41.278Z,15.33
2018-06-05T10:52:09.729Z,16.43
2018-06-05T10:54:38.167Z,12.73
2018-06-05T10:57:06.601Z,12.30
2018-06-05T10:59:35.064Z,13.23
2018-06-05T11:02:03.497Z,13.17
2018-06-05T11:04:31.962Z,10.13
2018-06-05T11:07:00.482Z,14.60
2018-06-05T11:09:28.902Z,17.00
2018-06-05T11:11:57.384Z,10.27
2018-06-05T11:14:26.983Z,17.30
2018-06-05T11:16:55.508Z,12.97
2018-06-05T11:19:23.961Z,12.13
2018-06-05T11:21:52.414Z,16.10
2018-06-05T11:24:20.870Z,14.40
2018-06-05T11:26:49.323Z,11.83
2018-06-05T11:29:17.750Z,11.57
2018-06-05T11:31:46.258Z,17.83
2018-06-05T11:34:14.697Z,16.40
2018-06-05T11:36:43.162Z,14.83
2018-06-05T11:39:11.776Z,13.03
2018-06-05T11:41:40.218Z,15.60
2018-06-05T11:44:08.711Z,16.33
2018-06-05T11:46:37.233Z,13.60
2018-06-05T11:49:05.716Z,17.80
2018-06-05T11:51:34.167Z,13.67
2018-06-05T11:54:02.679Z,15.50
2018-06-05T11:56:31.092Z,12.13
2018-06-05T11:58:59.630Z,9.13
2018-06-05T12:01:28.075Z,12.47
2018-06-05T12:03:56.523Z,11.07
2018-06-05T12:06:24.970Z,16.80
2018-06-05T12:08:53.694Z,19.93
2018-06-05T12:11:22.199Z,15.67
2018-06-05T12:13:50.721Z,15.83
2018-06-05T12:16:19.308Z,15.53
2018-06-05T12:18:47.812Z,17.87
2018-06-05T12:21:17.321Z,12.93
2018-06-05T12:23:45.790Z,11.60
2018-06-05T12:26:14.271Z,18.37
2018-06-05T12:28:42.730Z,10.50
2018-06-05T12:31:11.469Z,16.17
2018-06-05T12:33:39.971Z,9.03
2018-06-05T12:36:08.492Z,11.03
2018-06-05T12:38:37.228Z,12.63
2018-06-05T12:41:05.715Z,17.80
2018-06-05T12:43:34.178Z,11.27
2018-06-05T12:46:09.024Z,17.97
2018-06-05T12:48:37.599Z,11.17
2018-06-05T12:51:06.170Z,14.73
2018-06-05T12:53:34.683Z,17.77
2018-06-05T12:56:03.124Z,11.40
2018-06-05T12:58:31.573Z,12.83
2018-06-05T13:01:00.065Z,14.83
2018-06-05T13:03:28.510Z,21.27
2018-06-05T13:05:57.283Z,11.23
2018-06-05T13:08:25.907Z,13.33
2018-06-05T13:10:54.512Z,12.00
2018-06-05T13:13:23.160Z,17.03
2018-06-05T13:15:51.978Z,11.47
2018-06-05T13:18:20.508Z,15.23
2018-06-05T13:20:48.958Z,16.97
2018-06-05T13:23:17.475Z,11.93
2018-06-05T13:25:45.947Z,13.27
2018-06-05T13:28:14.435Z,11.53
2018-06-05T13:30:42.991Z,11.20
2018-06-05T13:33:11.576Z,12.37
2018-06-05T13:35:40.135Z,13.10
2018-06-05T13:38:08.579Z,12.53
2018-06-05T13:40:36.997Z,10.87
2018-06-05T13:43:05.476Z,10.63
2018-06-05T13:45:33.878Z,10.90
2018-06-05T13:48:02.381Z,20.37
2018-06-05T13:50:30.811Z,9.13
2018-06-05T13:52:59.271Z,8.60
2018-06-05T13:55:27.751Z,14.93
2018-06-05T13:57:56.201Z,12.37
2018-06-05T14:00:24.744Z,16.70
2018-06-05T14:02:53.230Z,10.83
2018-06-05T14:05:21.677Z,9.97
2018-06-05T14:07:50.206Z,9.43
2018-06-05T14:10:18.629Z,10.27
2018-06-05T14:12:47.111Z,10.33
2018-06-05T14:15:15.543Z,12.00
2018-06-05T14:17:44.017Z,13.80
2018-06-05T14:20:12.482Z,13.70
2018-06-05T14:22:40.959Z,6.47
2018-06-05T14:25:09.397Z,15.83
2018-06-05T14:27:37.867Z,12.13
2018-06-05T14:30:06.346Z,11.40
2018-06-05T14:32:34.767Z,7.83
2018-06-05T14:35:03.199Z,12.03
2018-06-05T14:37:31.674Z,13.20
2018-06-05T14:40:00.141Z,11.53
2018-06-05T14:42:28.570Z,15.40
2018-06-05T14:44:57.029Z,9.80
2018-06-05T14:47:25.520Z,12.70
2018-06-05T14:49:53.983Z,10.37
2018-06-05T14:52:22.416Z,15.27
2018-06-05T14:54:50.899Z,7.47
2018-06-05T14:57:19.494Z,10.90
2018-06-05T14:59:48.007Z,9.43
2018-06-05T15:02:16.500Z,13.80
2018-06-05T15:04:44.929Z,7.83
2018-06-05T15:07:13.399Z,9.20
2018-06-05T15:09:41.825Z,9.70
2018-06-05T15:12:10.290Z,9.83
2018-06-05T15:14:38.720Z,6.93
2018-06-05T15:17:07.205Z,8.77
2018-06-05T15:19:35.661Z,8.10
2018-06-05T15:22:04.159Z,9.50
2018-06-05T15:24:32.644Z,7.83
2018-06-05T15:27:01.089Z,9.83
2018-06-05T15:29:29.551Z,9.43
2018-06-05T15:31:57.982Z,12.70
2018-06-05T15:34:26.424Z,7.07
2018-06-05T15:36:54.851Z,9.80
2018-06-05T15:39:23.338Z,8.37
2018-06-05T15:41:51.827Z,9.53
2018-06-05T15:44:20.278Z,7.80
2018-06-05T15:46:48.723Z,4.83
2018-06-05T15:49:17.197Z,8.17
2018-06-05T15:51:45.657Z,9.67
2018-06-05T15:54:14.119Z,9.90
2018-06-05T15:56:42.563Z,7.40
2018-06-05T15:59:11.120Z,9.93
2018-06-05T16:01:39.546Z,5.27
2018-06-05T16:04:07.992Z,6.73
2018-06-05T16:06:36.454Z,11.20
2018-06-05T16:09:08.502Z,10.03
2018-06-05T16:11:37.137Z,9.23
2018-06-05T16:14:05.691Z,8.90
2018-06-05T16:16:34.127Z,6.80
2018-06-05T16:19:02.544Z,6.97
2018-06-05T16:21:30.982Z,8.97
2018-06-05T16:23:59.479Z,11.10
2018-06-05T16:26:28.008Z,10.30
2018-06-05T16:28:56.411Z,9.40
2018-06-05T16:31:24.905Z,7.37
2018-06-05T16:33:53.340Z,10.80
2018-06-05T16:36:21.814Z,12.00
2018-06-05T16:38:50.230Z,9.67
2018-06-05T16:41:18.691Z,9.27
2018-06-05T16:43:47.121Z,10.43
2018-06-05T16:46:15.588Z,10.67
2018-06-05T16:48:43.985Z,6.47
2018-06-05T16:51:12.440Z,9.97
2018-06-05T16:53:41.141Z,9.10
2018-06-05T16:56:09.641Z,11.67
2018-06-05T16:58:38.112Z,6.77
2018-06-05T17:01:06.657Z,9.60
2018-06-05T17:03:35.139Z,18.80
2018-06-05T17:06:03.548Z,6.93
2018-06-05T17:08:31.980Z,10.43
2018-06-05T17:11:00.403Z,7.27
2018-06-05T17:13:28.984Z,11.67
2018-06-05T17:15:57.392Z,7.43
2018-06-05T17:18:25.846Z,9.50
2018-06-05T17:20:54.260Z,13.17
2018-06-05T17:23:22.809Z,8.83
2018-06-05T17:25:51.288Z,9.17
2018-06-05T17:28:19.726Z,9.23
2018-06-05T17:30:48.187Z,9.07
2018-06-05T17:33:16.804Z,10.53
2018-06-05T17:35:45.232Z,9.47
2018-06-05T17:38:13.630Z,8.97
2018-06-05T17:40:42.152Z,11.33
2018-06-05T17:43:10.658Z,8.27
2018-06-05T17:45:39.188Z,11.00
2018-06-05T17:48:07.556Z,8.30
2018-06-05T17:50:36.009Z,10.80
2018-06-05T17:53:04.462Z,6.43
2018-06-05T17:55:32.913Z,7.40
2018-06-05T17:58:01.351Z,9.30
2018-06-05T18:00:29.802Z,9.30
2018-06-05T18:02:58.247Z,12.37
2018-06-05T18:05:26.670Z,13.23
2018-06-05T18:07:55.240Z,11.63
2018-06-05T18:10:23.727Z,11.60
2018-06-05T18:12:52.260Z,11.30
2018-06-05T18:15:20.716Z,10.40
2018-06-05T18:17:49.199Z,17.10
2018-06-05T18:20:17.639Z,17.80
2018-06-05T18:22:46.260Z,12.03
2018-06-05T18:25:14.701Z,14.03
2018-06-05T18:27:43.176Z,24.53
2018-06-05T18:30:11.589Z,14.00
2018-06-05T18:32:40.038Z,15.93
2018-06-05T18:35:08.460Z,12.87
2018-06-05T18:37:36.924Z,13.60
2018-06-05T18:40:05.397Z,22.37
2018-06-05T18:42:34.139Z,24.40
2018-06-05T18:45:02.574Z,17.47
2018-06-05T18:47:31.019Z,18.73
2018-06-05T18:49:59.515Z,17.97
2018-06-05T18:52:27.978Z,22.00
2018-06-05T18:54:56.432Z,19.53
2018-06-05T18:57:24.931Z,18.60
2018-06-05T18:59:53.386Z,20.43
2018-06-05T19:02:21.798Z,14.93
2018-06-05T19:04:50.339Z,18.33
2018-06-05T19:07:18.761Z,20.80
2018-06-05T19:09:47.239Z,17.77
2018-06-05T19:12:15.582Z,14.83
2018-06-05T19:14:44.000Z,18.47
2018-06-05T19:17:12.515Z,19.87
2018-06-05T19:19:40.966Z,21.60
2018-06-05T19:22:09.453Z,16.57
2018-06-05T19:24:37.930Z,17.30
2018-06-05T19:27:06.422Z,15.73
2018-06-05T19:29:34.901Z,17.33
2018-06-05T19:32:03.399Z,15.60
2018-06-05T19:34:31.790Z,17.30
2018-06-05T19:37:00.260Z,24.67
2018-06-05T19:39:28.718Z,18.30
2018-06-05T19:41:57.206Z,13.80
2018-06-05T19:44:25.627Z,31.27
2018-06-05T19:46:54.051Z,21.17
2018-06-05T19:49:22.514Z,23.87
2018-06-05T19:51:51.711Z,13.40
2018-06-05T19:54:20.203Z,20.87
2018-06-05T19:56:48.639Z,11.63
2018-06-05T19:59:17.305Z,17.23
2018-06-05T20:01:45.781Z,23.40
2018-06-05T20:04:14.236Z,20.63
2018-06-05T20:06:42.690Z,12.33
2018-06-05T20:09:11.220Z,16.43
2018-06-05T20:11:39.738Z,21.00
2018-06-05T20:14:08.194Z,18.30
2018-06-05T20:16:36.711Z,14.00
2018-06-05T20:19:05.254Z,11.93
2018-06-05T20:21:33.721Z,13.37
2018-06-05T20:24:02.189Z,18.93
2018-06-05T20:26:30.691Z,15.07
2018-06-05T20:28:59.184Z,18.23
2018-06-05T20:31:27.652Z,17.07
2018-06-05T20:33:56.115Z,19.77
2018-06-05T20:36:24.581Z,21.67
2018-06-05T20:38:53.037Z,14.93
2018-06-05T20:41:21.578Z,16.93
2018-06-05T20:43:50.040Z,14.33
2018-06-05T20:46:18.496Z,19.83
2018-06-05T20:48:46.994Z,12.80
2018-06-05T20:51:15.520Z,18.63
2018-06-05T20:53:43.991Z,14.03
2018-06-05T20:56:12.436Z,15.33
2018-06-05T20:58:40.886Z,12.47
2018-06-05T21:01:09.385Z,15.63
2018-06-05T21:03:37.839Z,14.40
2018-06-05T21:06:06.255Z,13.10
2018-06-05T21:08:34.720Z,9.57
2018-06-05T21:11:03.202Z,11.97
2018-06-05T21:13:31.768Z,9.20
2018-06-05T21:16:00.207Z,10.17
2018-06-05T21:18:28.640Z,12.03
2018-06-05T21:20:57.090Z,11.03
2018-06-05T21:23:25.530Z,11.80
2018-06-05T21:25:54.019Z,11.53
2018-06-05T21:28:22.448Z,15.37
2018-06-05T21:30:50.924Z,16.90
2018-06-05T21:33:19.459Z,13.93
2018-06-05T21:35:47.945Z,14.33
2018-06-05T21:38:16.408Z,13.90
2018-06-05T21:40:44.847Z,12.47
2018-06-05T21:43:13.790Z,9.40
2018-06-05T21:45:44.048Z,10.60
2018-06-05T21:48:12.504Z,8.73
2018-06-05T21:50:40.991Z,11.57
2018-06-05T21:53:09.499Z,8.43
2018-06-05T21:55:38.054Z,8.27
2018-06-05T21:58:06.484Z,9.83
2018-06-05T22:00:35.023Z,11.53
2018-06-05T22:03:03.444Z,9.10
2018-06-05T22:05:31.927Z,7.70
2018-06-05T22:08:00.342Z,6.70
2018-06-05T22:10:28.803Z,8.13
2018-06-05T22:12:57.269Z,6.40
2018-06-05T22:15:25.745Z,12.40
2018-06-05T22:17:54.160Z,6.07
2018-06-05T22:20:22.608Z,6.93
2018-06-05T22:22:51.545Z,7.27
2018-06-05T22:25:20.116Z,6.77
2018-06-05T22:27:48.601Z,6.53
2018-06-05T22:30:17.102Z,5.90
2018-06-05T22:32:45.627Z,6.17
2018-06-05T22:35:14.177Z,6.43
2018-06-05T22:37:42.711Z,8.17
2018-06-05T22:40:11.241Z,6.00
2018-06-05T22:42:39.645Z,6.67
2018-06-05T22:45:08.100Z,6.13
2018-06-05T22:47:36.617Z,5.70
2018-06-05T22:50:05.115Z,6.87
2018-06-05T22:52:33.590Z,5.77
2018-06-05T22:55:02.124Z,7.23
2018-06-05T22:57:30.590Z,6.13
2018-06-05T22:59:59.073Z,7.57
2018-06-05T23:02:27.541Z,8.00
2018-06-05T23:04:55.959Z,5.03
2018-06-05T23:07:24.559Z,5.50
2018-06-05T23:09:53.030Z,5.57
2018-06-05T23:12:21.623Z,6.93
2018-06-05T23:14:50.140Z,10.23
2018-06-05T23:17:18.611Z,5.50
2018-06-05T23:19:47.060Z,6.07
2018-06-05T23:22:15.499Z,5.50
2018-06-05T23:24:43.956Z,5.90
2018-06-05T23:27:12.480Z,6.30
2018-06-05T23:29:41.055Z,5.10
2018-06-05T23:32:09.606Z,4.90
2018-06-05T23:34:38.219Z,5.00
2018-06-05T23:37:06.850Z,4.90
2018-06-05T23:39:35.303Z,5.00
2018-06-05T23:42:03.881Z,5.40
2018-06-05T23:44:32.385Z,5.43
2018-06-05T23:47:00.869Z,5.47
2018-06-05T23:49:29.362Z,6.67
2018-06-05T23:51:58.783Z,4.87
2018-06-05T23:54:27.450Z,6.13
2018-06-05T23:56:55.994Z,5.03
2018-06-05T23:59:24.456Z,6.50
